createdAt,value
2023-06-04T07:26:29.464Z,75
2023-06-04T07:27:02.681Z,26
2023-06-04T07:27:33.160Z,26
2023-06-04T07:28:05.822Z,26
2023-06-04T07:28:37.176Z,26
2023-06-04T07:29:10.069Z,116
2023-06-04T07:29:41.077Z,73
2023-06-04T07:30:15.192Z,73
2023-06-04T07:30:45.415Z,73
2023-06-04T07:31:18.021Z,355
2023-06-04T07:31:49.233Z,40
2023-06-04T07:32:22.165Z,40
2023-06-04T07:32:53.169Z,38
2023-06-04T07:33:29.090Z,30
2023-06-04T07:33:57.183Z,30
2023-06-04T07:34:31.693Z,29
2023-06-04T07:35:01.584Z,35
2023-06-04T07:35:17.190Z,30
2023-06-04T07:35:49.412Z,30
2023-06-04T07:36:21.103Z,30
2023-06-04T07:36:53.268Z,30
2023-06-04T07:37:25.220Z,30
2023-06-04T07:37:57.163Z,38
2023-06-04T07:38:29.173Z,38
2023-06-04T07:39:01.368Z,29
2023-06-04T07:39:33.318Z,27
2023-06-04T07:40:06.146Z,27
2023-06-04T07:40:37.231Z,27
2023-06-04T07:41:10.699Z,32
2023-06-04T07:41:41.216Z,32
2023-06-04T07:42:14.071Z,32
2023-06-04T07:42:45.258Z,42
2023-06-04T07:43:17.978Z,42
2023-06-04T07:43:49.187Z,42
2023-06-04T07:44:22.026Z,42
2023-06-04T07:44:53.124Z,0
2023-06-04T07:45:29.713Z,27
2023-06-04T07:45:57.454Z,27
2023-06-04T07:46:35.969Z,27
2023-06-04T07:47:01.618Z,27
2023-06-04T07:47:33.317Z,27
2023-06-04T07:48:05.091Z,19
2023-06-04T07:48:37.061Z,19
2023-06-04T07:49:09.912Z,15
2023-06-04T07:49:54.105Z,338
2023-06-04T07:50:14.153Z,338
2023-06-04T07:50:45.201Z,338
2023-06-04T07:51:18.016Z,28
2023-06-04T07:51:49.118Z,28
2023-06-04T07:52:22.131Z,354
2023-06-04T07:52:53.312Z,354
2023-06-04T07:53:26.062Z,354
2023-06-04T07:53:57.094Z,354
2023-06-04T07:54:30.051Z,13
2023-06-04T07:55:01.720Z,22
2023-06-04T07:55:33.941Z,22
2023-06-04T07:56:05.222Z,22
2023-06-04T07:56:37.986Z,22
2023-06-04T07:57:09.241Z,12
2023-06-04T07:57:42.221Z,28
2023-06-04T07:58:13.093Z,28
2023-06-04T07:58:46.140Z,29
2023-06-04T07:59:17.149Z,38
2023-06-04T07:59:50.128Z,38
2023-06-04T08:00:22.726Z,0
2023-06-04T08:00:54.219Z,3
2023-06-04T08:01:25.158Z,3
2023-06-04T08:01:58.117Z,3
2023-06-04T08:02:29.348Z,7
2023-06-04T08:03:03.218Z,7
2023-06-04T08:03:33.290Z,7
2023-06-04T08:04:06.238Z,3
2023-06-04T08:04:37.079Z,3
2023-06-04T08:05:10.288Z,3
2023-06-04T08:05:41.278Z,37
2023-06-04T08:06:14.127Z,8
2023-06-04T08:06:45.190Z,37
2023-06-04T08:07:18.102Z,8
2023-06-04T08:07:49.235Z,8
2023-06-04T08:08:21.981Z,8
2023-06-04T08:08:53.224Z,4
2023-06-04T08:09:26.163Z,4
2023-06-04T08:09:57.257Z,0
2023-06-04T08:10:30.555Z,4
2023-06-04T08:11:01.316Z,25
2023-06-04T08:11:34.191Z,75
2023-06-04T08:12:05.149Z,75
2023-06-04T08:12:38.005Z,75
2023-06-04T08:13:09.274Z,102
2023-06-04T08:13:41.711Z,75
2023-06-04T08:14:13.199Z,75
2023-06-04T08:14:46.204Z,75
2023-06-04T08:15:18.032Z,332
2023-06-04T08:15:50.338Z,332
2023-06-04T08:16:21.190Z,332
2023-06-04T08:16:54.140Z,323
2023-06-04T08:17:25.178Z,332
2023-06-04T08:17:58.240Z,332
2023-06-04T08:18:29.305Z,332
2023-06-04T08:19:02.297Z,332
2023-06-04T08:19:33.229Z,332
2023-06-04T08:20:06.371Z,332
2023-06-04T08:20:37.350Z,332
2023-06-04T08:21:10.090Z,332
2023-06-04T08:21:41.426Z,353
2023-06-04T08:22:13.991Z,353
2023-06-04T08:22:45.170Z,331
2023-06-04T08:23:18.140Z,353
2023-06-04T08:23:49.249Z,40
2023-06-04T08:24:21.837Z,40
2023-06-04T08:24:53.327Z,43
2023-06-04T08:25:26.325Z,358
2023-06-04T08:25:57.269Z,358
2023-06-04T08:26:30.199Z,6
2023-06-04T08:27:01.405Z,6
2023-06-04T08:27:34.174Z,358
2023-06-04T08:28:05.070Z,43
2023-06-04T08:28:37.880Z,43
2023-06-04T08:29:09.160Z,43
2023-06-04T08:29:42.223Z,48
2023-06-04T08:30:14.274Z,43
2023-06-04T08:30:46.168Z,43
2023-06-04T08:31:17.294Z,43
2023-06-04T08:31:50.020Z,43
2023-06-04T08:32:21.163Z,43
2023-06-04T08:32:54.215Z,43
2023-06-04T08:33:25.358Z,43
2023-06-04T08:33:58.216Z,43
2023-06-04T08:34:29.182Z,43
2023-06-04T08:35:02.599Z,43
2023-06-04T08:35:33.247Z,43
2023-06-04T08:36:06.193Z,34
2023-06-04T08:36:37.335Z,43
2023-06-04T08:37:10.229Z,43
2023-06-04T08:37:41.254Z,43
2023-06-04T08:38:14.053Z,43
2023-06-04T08:38:49.529Z,31
2023-06-04T08:39:18.109Z,48
2023-06-04T08:39:49.186Z,2
2023-06-04T08:40:22.429Z,90
2023-06-04T08:40:53.199Z,358
2023-06-04T08:41:26.191Z,349
2023-06-04T08:41:57.300Z,349
2023-06-04T08:42:29.737Z,349
2023-06-04T08:43:01.334Z,349
2023-06-04T08:43:17.240Z,349
2023-06-04T08:43:49.247Z,349
2023-06-04T08:44:21.062Z,349
2023-06-04T08:44:53.346Z,349
2023-06-04T08:45:26.161Z,353
2023-06-04T08:45:58.434Z,353
2023-06-04T08:46:29.229Z,353
2023-06-04T08:47:02.379Z,349
2023-06-04T08:47:33.258Z,349
2023-06-04T08:48:06.331Z,349
2023-06-04T08:48:37.267Z,349
2023-06-04T08:49:10.360Z,3
2023-06-04T08:49:41.160Z,356
2023-06-04T08:50:14.212Z,319
2023-06-04T08:50:45.408Z,319
2023-06-04T08:51:18.115Z,319
2023-06-04T08:51:49.284Z,319
2023-06-04T08:52:23.181Z,319
2023-06-04T08:52:53.252Z,319
2023-06-04T08:53:26.127Z,319
2023-06-04T08:53:57.233Z,319
2023-06-04T08:54:29.926Z,356
2023-06-04T08:55:01.603Z,319
2023-06-04T08:55:17.353Z,319
2023-06-04T08:55:49.389Z,10
2023-06-04T08:56:21.126Z,10
2023-06-04T08:56:53.390Z,7
2023-06-04T08:57:25.210Z,7
2023-06-04T08:57:58.073Z,7
2023-06-04T08:58:29.099Z,7
2023-06-04T08:59:02.097Z,42
2023-06-04T08:59:33.199Z,63
2023-06-04T09:00:07.362Z,42
2023-06-04T09:00:37.481Z,42
2023-06-04T09:01:10.557Z,58
2023-06-04T09:01:41.147Z,53
2023-06-04T09:02:14.333Z,35
2023-06-04T09:02:45.416Z,35
2023-06-04T09:03:18.029Z,77
2023-06-04T09:03:49.459Z,35
2023-06-04T09:04:22.037Z,345
2023-06-04T09:04:53.131Z,45
2023-06-04T09:05:26.233Z,59
2023-06-04T09:05:57.248Z,36
2023-06-04T09:06:30.026Z,36
2023-06-04T09:07:01.362Z,36
2023-06-04T09:07:35.102Z,23
2023-06-04T09:08:05.323Z,23
2023-06-04T09:08:37.961Z,23
2023-06-04T09:09:09.230Z,36
2023-06-04T09:09:42.123Z,19
2023-06-04T09:10:14.126Z,19
2023-06-04T09:10:46.866Z,19
2023-06-04T09:11:17.282Z,15
2023-06-04T09:11:50.103Z,28
2023-06-04T09:12:21.153Z,15
2023-06-04T09:12:54.033Z,15
2023-06-04T09:13:25.266Z,15
2023-06-04T09:13:58.043Z,15
2023-06-04T09:14:29.180Z,15
2023-06-04T09:15:03.811Z,29
2023-06-04T09:15:33.363Z,29
2023-06-04T09:16:05.984Z,15
2023-06-04T09:16:37.248Z,136
2023-06-04T09:17:10.191Z,341
2023-06-04T09:17:41.469Z,21
2023-06-04T09:18:13.916Z,21
2023-06-04T09:18:45.188Z,29
2023-06-04T09:19:18.290Z,21
2023-06-04T09:19:49.176Z,12
2023-06-04T09:20:22.322Z,29
2023-06-04T09:20:53.393Z,29
2023-06-04T09:21:26.101Z,12
2023-06-04T09:21:57.155Z,344
2023-06-04T09:22:30.126Z,344
2023-06-04T09:23:01.448Z,344
2023-06-04T09:23:34.032Z,12
2023-06-04T09:24:05.288Z,12
2023-06-04T09:24:38.178Z,12
2023-06-04T09:25:09.294Z,12
2023-06-04T09:25:41.950Z,12
2023-06-04T09:26:13.199Z,12
2023-06-04T09:26:45.998Z,12
2023-06-04T09:27:17.133Z,11
2023-06-04T09:27:51.207Z,11
2023-06-04T09:28:21.219Z,81
2023-06-04T09:28:54.009Z,81
2023-06-04T09:29:25.105Z,81
2023-06-04T09:29:58.116Z,81
2023-06-04T09:30:30.434Z,63
2023-06-04T09:31:02.357Z,63
2023-06-04T09:31:33.407Z,63
2023-06-04T09:32:06.279Z,63
2023-06-04T09:32:37.239Z,46
2023-06-04T09:33:10.515Z,85
2023-06-04T09:33:41.303Z,46
2023-06-04T09:34:15.185Z,46
2023-06-04T09:34:45.083Z,46
2023-06-04T09:35:18.335Z,46
2023-06-04T09:35:49.456Z,69
2023-06-04T09:36:22.039Z,52
2023-06-04T09:36:53.284Z,52
2023-06-04T09:37:26.192Z,52
2023-06-04T09:37:57.411Z,52
2023-06-04T09:38:30.068Z,52
2023-06-04T09:39:01.376Z,52
2023-06-04T09:39:34.156Z,31
2023-06-04T09:40:05.764Z,31
2023-06-04T09:40:39.222Z,31
2023-06-04T09:41:09.354Z,31
2023-06-04T09:41:42.067Z,31
2023-06-04T09:42:13.200Z,31
2023-06-04T09:42:46.223Z,31
2023-06-04T09:43:17.409Z,31
2023-06-04T09:43:50.317Z,31
2023-06-04T09:44:21.234Z,52
2023-06-04T09:44:54.019Z,232
2023-06-04T09:45:26.270Z,311
2023-06-04T09:45:58.663Z,311
2023-06-04T09:46:29.385Z,7
2023-06-04T09:47:01.956Z,359
2023-06-04T09:47:33.386Z,34
2023-06-04T09:48:09.367Z,332
2023-06-04T09:48:37.342Z,315
2023-06-04T09:49:10.240Z,319
2023-06-04T09:49:41.371Z,315
2023-06-04T09:50:14.308Z,315
2023-06-04T09:50:45.146Z,315
2023-06-04T09:51:18.063Z,356
2023-06-04T09:51:49.540Z,323
2023-06-04T09:52:21.954Z,323
2023-06-04T09:52:53.294Z,323
2023-06-04T09:53:25.951Z,323
2023-06-04T09:53:57.338Z,323
2023-06-04T09:54:29.817Z,323
2023-06-04T09:55:01.705Z,323
2023-06-04T09:55:34.288Z,323
2023-06-04T09:56:05.215Z,323
2023-06-04T09:56:39.080Z,323
2023-06-04T09:57:09.294Z,323
2023-06-04T09:57:42.346Z,314
2023-06-04T09:58:13.141Z,322
2023-06-04T09:58:45.936Z,322
2023-06-04T09:59:17.361Z,322
2023-06-04T09:59:50.191Z,322
2023-06-04T10:00:22.327Z,322
2023-06-04T10:00:54.111Z,322
2023-06-04T10:01:25.366Z,271
2023-06-04T10:01:58.954Z,271
2023-06-04T10:02:29.204Z,20
2023-06-04T10:03:02.474Z,20
2023-06-04T10:03:33.214Z,13
2023-06-04T10:04:06.134Z,264
2023-06-04T10:04:37.230Z,264
2023-06-04T10:05:10.075Z,236
2023-06-04T10:05:41.220Z,264
2023-06-04T10:06:13.693Z,264
2023-06-04T10:06:45.372Z,23
2023-06-04T10:07:18.014Z,23
2023-06-04T10:07:49.230Z,23
2023-06-04T10:08:22.013Z,30
2023-06-04T10:08:53.349Z,30
2023-06-04T10:09:25.987Z,33
2023-06-04T10:09:57.305Z,5
2023-06-04T10:10:31.635Z,5
2023-06-04T10:11:01.282Z,26
2023-06-04T10:11:33.990Z,26
2023-06-04T10:12:05.299Z,341
2023-06-04T10:12:38.040Z,23
2023-06-04T10:13:09.274Z,31
2023-06-04T10:13:42.285Z,31
2023-06-04T10:14:13.303Z,31
2023-06-04T10:14:46.342Z,31
2023-06-04T10:15:18.489Z,31
2023-06-04T10:15:50.432Z,31
2023-06-04T10:16:32.634Z,31
2023-06-04T10:16:54.835Z,77
2023-06-04T10:17:25.310Z,77
2023-06-04T10:17:58.313Z,57
2023-06-04T10:18:29.176Z,57
2023-06-04T10:19:02.065Z,77
2023-06-04T10:19:33.296Z,31
2023-06-04T10:20:06.213Z,31
2023-06-04T10:20:37.225Z,230
2023-06-04T10:21:10.116Z,35
2023-06-04T10:21:41.192Z,35
2023-06-04T10:22:14.217Z,35
2023-06-04T10:22:45.316Z,35
2023-06-04T10:23:18.155Z,35
2023-06-04T10:23:49.276Z,29
2023-06-04T10:24:22.001Z,29
2023-06-04T10:24:53.326Z,29
2023-06-04T10:25:26.406Z,29
2023-06-04T10:25:57.246Z,29
2023-06-04T10:26:32.271Z,29
2023-06-04T10:27:01.319Z,281
2023-06-04T10:27:34.146Z,316
2023-06-04T10:28:05.367Z,316
2023-06-04T10:28:38.063Z,38
2023-06-04T10:29:09.201Z,323
2023-06-04T10:29:42.067Z,305
2023-06-04T10:30:14.307Z,281
2023-06-04T10:30:46.183Z,305
2023-06-04T10:31:17.267Z,305
2023-06-04T10:31:50.186Z,305
2023-06-04T10:32:21.286Z,305
2023-06-04T10:32:54.112Z,305
2023-06-04T10:33:25.323Z,340
2023-06-04T10:33:58.125Z,340
2023-06-04T10:34:29.129Z,338
2023-06-04T10:35:02.630Z,338
2023-06-04T10:35:33.307Z,325
2023-06-04T10:36:06.153Z,325
2023-06-04T10:36:37.122Z,345
2023-06-04T10:37:10.288Z,345
2023-06-04T10:37:41.289Z,330
2023-06-04T10:38:14.154Z,330
2023-06-04T10:38:45.171Z,338
2023-06-04T10:39:18.106Z,330
2023-06-04T10:39:49.282Z,338
2023-06-04T10:40:22.230Z,338
2023-06-04T10:40:53.257Z,338
2023-06-04T10:41:26.308Z,338
2023-06-04T10:41:57.134Z,338
2023-06-04T10:42:30.110Z,338
2023-06-04T10:43:01.448Z,338
2023-06-04T10:43:34.062Z,338
2023-06-04T10:44:05.198Z,54
2023-06-04T10:44:37.934Z,54
2023-06-04T10:45:10.543Z,54
2023-06-04T10:45:42.139Z,54
2023-06-04T10:46:13.271Z,54
2023-06-04T10:46:46.320Z,53
2023-06-04T10:47:17.188Z,54
2023-06-04T10:47:50.243Z,53
2023-06-04T10:48:21.205Z,53
2023-06-04T10:48:54.199Z,53
2023-06-04T10:49:25.125Z,53
2023-06-04T10:49:58.071Z,53
2023-06-04T10:50:29.633Z,53
2023-06-04T10:51:02.092Z,53
2023-06-04T10:51:33.225Z,53
2023-06-04T10:52:06.135Z,53
2023-06-04T10:52:37.162Z,54
2023-06-04T10:53:10.017Z,56
2023-06-04T10:53:41.280Z,333
2023-06-04T10:54:14.141Z,333
2023-06-04T10:54:45.423Z,54
2023-06-04T10:55:18.724Z,333
2023-06-04T10:55:49.294Z,333
2023-06-04T10:56:21.984Z,333
2023-06-04T10:56:53.268Z,333
2023-06-04T10:57:26.410Z,333
2023-06-04T10:57:57.198Z,333
2023-06-04T10:58:30.066Z,333
2023-06-04T10:59:01.475Z,341
2023-06-04T10:59:34.104Z,341
2023-06-04T11:00:06.750Z,341
2023-06-04T11:00:38.254Z,341
2023-06-04T11:01:09.530Z,341
2023-06-04T11:01:41.941Z,351
2023-06-04T11:02:13.148Z,354
2023-06-04T11:02:46.136Z,354
2023-06-04T11:03:17.629Z,354
2023-06-04T11:03:50.006Z,354
2023-06-04T11:04:21.330Z,354
2023-06-04T11:04:54.091Z,20
2023-06-04T11:05:25.431Z,20
2023-06-04T11:05:57.776Z,20
2023-06-04T11:06:29.228Z,20
2023-06-04T11:07:02.036Z,20
2023-06-04T11:07:33.545Z,351
2023-06-04T11:08:06.838Z,351
2023-06-04T11:08:37.370Z,351
2023-06-04T11:09:10.042Z,275
2023-06-04T11:09:41.316Z,276
2023-06-04T11:10:14.466Z,276
2023-06-04T11:10:45.166Z,276
2023-06-04T11:11:18.087Z,276
2023-06-04T11:11:49.294Z,61
2023-06-04T11:12:22.083Z,61
2023-06-04T11:12:53.232Z,243
2023-06-04T11:13:25.966Z,293
2023-06-04T11:13:57.232Z,336
2023-06-04T11:14:30.090Z,336
2023-06-04T11:15:02.768Z,268
2023-06-04T11:15:34.216Z,268
2023-06-04T11:16:05.336Z,268
2023-06-04T11:16:37.918Z,268
2023-06-04T11:17:09.249Z,268
2023-06-04T11:17:42.253Z,268
2023-06-04T11:18:13.174Z,327
2023-06-04T11:18:45.894Z,327
2023-06-04T11:19:17.365Z,327
2023-06-04T11:19:50.090Z,331
2023-06-04T11:20:21.467Z,331
2023-06-04T11:20:54.149Z,331
2023-06-04T11:21:27.720Z,331
2023-06-04T11:21:58.085Z,331
2023-06-04T11:22:29.323Z,331
2023-06-04T11:23:02.466Z,331
2023-06-04T11:23:33.473Z,331
2023-06-04T11:24:06.067Z,331
2023-06-04T11:24:37.298Z,331
2023-06-04T11:25:10.357Z,331
2023-06-04T11:25:41.224Z,331
2023-06-04T11:26:14.075Z,331
2023-06-04T11:26:53.572Z,331
2023-06-04T11:27:35.277Z,34
2023-06-04T11:27:49.347Z,34
2023-06-04T11:28:22.007Z,34
2023-06-04T11:28:53.386Z,34
2023-06-04T11:29:25.840Z,34
2023-06-04T11:29:57.321Z,34
2023-06-04T11:30:31.126Z,34
2023-06-04T11:31:01.317Z,34
2023-06-04T11:31:34.030Z,34
2023-06-04T11:32:05.318Z,3
2023-06-04T11:32:38.315Z,3
2023-06-04T11:33:09.252Z,3
2023-06-04T11:33:42.008Z,3
2023-06-04T11:34:13.370Z,3
2023-06-04T11:34:46.174Z,3
2023-06-04T11:35:17.597Z,3
2023-06-04T11:35:50.145Z,3
2023-06-04T11:36:21.334Z,3
2023-06-04T11:36:54.024Z,3
2023-06-04T11:37:25.262Z,3
2023-06-04T11:37:58.430Z,3
2023-06-04T11:38:29.170Z,330
2023-06-04T11:39:02.230Z,330
2023-06-04T11:39:33.269Z,265
2023-06-04T11:40:06.503Z,265
2023-06-04T11:40:37.322Z,258
2023-06-04T11:41:10.195Z,258
2023-06-04T11:41:41.396Z,258
2023-06-04T11:42:14.004Z,265
2023-06-04T11:42:45.298Z,35
2023-06-04T11:43:18.218Z,35
2023-06-04T11:43:49.314Z,35
2023-06-04T11:44:23.675Z,35
2023-06-04T11:44:53.427Z,35
2023-06-04T11:45:27.343Z,35
2023-06-04T11:45:57.313Z,175
2023-06-04T11:46:30.047Z,79
2023-06-04T11:47:01.465Z,79
2023-06-04T11:47:33.996Z,130
2023-06-04T11:48:05.170Z,143
2023-06-04T11:48:38.783Z,143
2023-06-04T11:49:09.354Z,84
2023-06-04T11:49:42.344Z,122
2023-06-04T11:50:13.590Z,122
2023-06-04T11:50:46.321Z,122
2023-06-04T11:51:17.330Z,328
2023-06-04T11:51:50.116Z,328
2023-06-04T11:52:21.314Z,336
2023-06-04T11:52:54.352Z,19
2023-06-04T11:53:25.224Z,19
2023-06-04T11:53:58.970Z,6
2023-06-04T11:54:29.375Z,6
2023-06-04T11:55:02.669Z,13
2023-06-04T11:55:33.339Z,13
2023-06-04T11:56:06.349Z,13
2023-06-04T11:56:37.195Z,336
2023-06-04T11:57:10.419Z,336
2023-06-04T11:57:41.307Z,13
2023-06-04T11:58:14.314Z,13
2023-06-04T11:58:45.269Z,13
2023-06-04T11:59:18.149Z,13
2023-06-04T11:59:49.407Z,13
2023-06-04T12:00:23.276Z,13
2023-06-04T12:00:53.213Z,13
2023-06-04T12:01:26.300Z,13
2023-06-04T12:01:57.235Z,13
2023-06-04T12:02:30.365Z,21
2023-06-04T12:03:01.461Z,162
2023-06-04T12:03:34.165Z,13
2023-06-04T12:04:05.164Z,219
2023-06-04T12:04:40.055Z,219
2023-06-04T12:05:09.557Z,219
2023-06-04T12:05:42.072Z,219
2023-06-04T12:06:13.430Z,219
2023-06-04T12:06:46.579Z,219
2023-06-04T12:07:17.296Z,219
2023-06-04T12:07:50.180Z,219
2023-06-04T12:08:21.259Z,69
2023-06-04T12:08:54.326Z,69
2023-06-04T12:09:25.153Z,219
2023-06-04T12:09:58.048Z,219
2023-06-04T12:10:29.708Z,219
2023-06-04T12:11:02.204Z,219
2023-06-04T12:11:33.277Z,219
2023-06-04T12:12:07.220Z,219
2023-06-04T12:12:37.161Z,42
2023-06-04T12:13:10.045Z,42
2023-06-04T12:13:41.343Z,36
2023-06-04T12:14:14.157Z,36
2023-06-04T12:14:45.186Z,36
2023-06-04T12:15:19.296Z,27
2023-06-04T12:15:49.653Z,27
2023-06-04T12:16:22.234Z,27
2023-06-04T12:16:53.402Z,27
2023-06-04T12:17:26.517Z,27
2023-06-04T12:17:57.378Z,27
2023-06-04T12:18:30.226Z,27
2023-06-04T12:19:01.590Z,36
2023-06-04T12:19:34.026Z,36
2023-06-04T12:20:05.477Z,69
2023-06-04T12:20:39.292Z,87
2023-06-04T12:21:09.320Z,87
2023-06-04T12:21:42.070Z,87
2023-06-04T12:22:13.185Z,87
2023-06-04T12:22:46.303Z,67
2023-06-04T12:23:17.286Z,17
2023-06-04T12:23:50.009Z,17
2023-06-04T12:24:21.324Z,17
2023-06-04T12:24:54.477Z,55
2023-06-04T12:25:25.553Z,79
2023-06-04T12:25:59.078Z,79
2023-06-04T12:26:29.387Z,87
2023-06-04T12:27:04.192Z,87
2023-06-04T12:27:33.308Z,87
2023-06-04T12:28:06.337Z,56
2023-06-04T12:28:37.396Z,47
2023-06-04T12:29:09.944Z,47
2023-06-04T12:29:41.330Z,47
2023-06-04T12:30:14.979Z,47
2023-06-04T12:30:45.447Z,47
2023-06-04T12:31:18.032Z,47
2023-06-04T12:31:49.343Z,66
2023-06-04T12:32:22.161Z,66
2023-06-04T12:32:53.354Z,58
2023-06-04T12:33:26.097Z,63
2023-06-04T12:33:57.340Z,63
2023-06-04T12:34:30.185Z,63
2023-06-04T12:35:01.702Z,67
2023-06-04T12:35:34.170Z,67
2023-06-04T12:36:05.510Z,67
2023-06-04T12:36:40.768Z,67
2023-06-04T12:37:09.394Z,67
2023-06-04T12:37:42.552Z,67
2023-06-04T12:38:13.252Z,67
2023-06-04T12:39:17.469Z,51
2023-06-04T12:39:50.215Z,51
2023-06-04T12:40:21.583Z,51
2023-06-04T12:40:54.035Z,51
2023-06-04T12:41:25.391Z,51
2023-06-04T12:41:57.894Z,51
2023-06-04T12:42:29.349Z,51
2023-06-04T12:43:02.432Z,59
2023-06-04T12:43:33.361Z,59
2023-06-04T12:44:06.384Z,59
2023-06-04T12:44:37.474Z,59
2023-06-04T12:45:11.356Z,29
2023-06-04T12:45:41.557Z,341
2023-06-04T12:46:15.123Z,21
2023-06-04T12:46:45.599Z,21
2023-06-04T12:47:18.279Z,21
2023-06-04T12:47:49.371Z,27
2023-06-04T12:48:22.146Z,21
2023-06-04T12:48:53.414Z,21
2023-06-04T12:49:26.190Z,272
2023-06-04T12:49:57.272Z,35
2023-06-04T12:50:30.766Z,35
2023-06-04T12:51:01.436Z,35
2023-06-04T12:51:17.467Z,35
2023-06-04T12:51:49.246Z,115
2023-06-04T12:52:21.418Z,47
2023-06-04T12:52:55.037Z,47
2023-06-04T12:53:25.321Z,27
2023-06-04T12:53:58.231Z,7
2023-06-04T12:54:29.294Z,27
2023-06-04T12:55:02.780Z,27
2023-06-04T12:55:33.211Z,27
2023-06-04T12:56:06.306Z,27
2023-06-04T12:56:37.289Z,125
2023-06-04T12:57:10.267Z,35
2023-06-04T12:57:41.288Z,40
2023-06-04T12:58:14.096Z,40
2023-06-04T12:58:45.291Z,9
2023-06-04T12:59:18.047Z,38
2023-06-04T12:59:49.231Z,38
2023-06-04T13:00:23.426Z,103
2023-06-04T13:00:53.384Z,38
2023-06-04T13:01:28.201Z,60
2023-06-04T13:01:57.319Z,38
2023-06-04T13:02:30.479Z,43
2023-06-04T13:03:01.354Z,43
2023-06-04T13:03:34.250Z,43
2023-06-04T13:04:05.341Z,43
2023-06-04T13:04:38.367Z,37
2023-06-04T13:05:09.674Z,37
2023-06-04T13:05:42.275Z,43
2023-06-04T13:06:13.429Z,43
2023-06-04T13:06:46.559Z,21
2023-06-04T13:07:17.614Z,40
2023-06-04T13:07:50.202Z,37
2023-06-04T13:08:21.439Z,37
2023-06-04T13:08:57.481Z,37
2023-06-04T13:09:25.211Z,37
2023-06-04T13:09:58.124Z,44
2023-06-04T13:10:29.616Z,37
2023-06-04T13:11:02.373Z,37
2023-06-04T13:11:33.408Z,37
2023-06-04T13:12:06.235Z,21
2023-06-04T13:12:37.271Z,21
2023-06-04T13:13:11.893Z,21
2023-06-04T13:13:41.425Z,21
2023-06-04T13:14:13.981Z,32
2023-06-04T13:14:45.287Z,21
2023-06-04T13:15:19.067Z,21
2023-06-04T13:15:49.388Z,21
2023-06-04T13:16:24.966Z,47
2023-06-04T13:16:53.525Z,40
2023-06-04T13:17:28.306Z,40
2023-06-04T13:17:57.245Z,40
2023-06-04T13:18:30.055Z,86
2023-06-04T13:19:01.374Z,62
2023-06-04T13:19:34.061Z,25
2023-06-04T13:20:05.568Z,25
2023-06-04T13:20:40.555Z,33
2023-06-04T13:21:09.578Z,33
2023-06-04T13:21:42.153Z,33
2023-06-04T13:22:13.250Z,47
2023-06-04T13:22:46.391Z,33
2023-06-04T13:23:17.372Z,68
2023-06-04T13:23:51.379Z,47
2023-06-04T13:24:21.484Z,54
2023-06-04T13:24:54.223Z,54
2023-06-04T13:25:25.598Z,54
2023-06-04T13:25:58.104Z,54
2023-06-04T13:26:29.473Z,99
2023-06-04T13:27:02.223Z,99
2023-06-04T13:27:33.261Z,99
2023-06-04T13:28:06.258Z,99
2023-06-04T13:28:37.437Z,99
2023-06-04T13:29:10.100Z,99
2023-06-04T13:29:43.745Z,99
2023-06-04T13:30:15.932Z,99
2023-06-04T13:30:45.472Z,99
2023-06-04T13:31:18.189Z,43
2023-06-04T13:31:49.483Z,43
2023-06-04T13:32:23.197Z,55
2023-06-04T13:32:53.428Z,55
2023-06-04T13:33:26.136Z,55
2023-06-04T13:33:57.399Z,359
2023-06-04T13:34:33.917Z,359
2023-06-04T13:35:01.799Z,347
2023-06-04T13:35:33.315Z,2
2023-06-04T13:36:06.118Z,2
2023-06-04T13:36:37.262Z,349
2023-06-04T13:37:10.167Z,14
2023-06-04T13:37:41.184Z,9
2023-06-04T13:38:14.041Z,9
2023-06-04T13:38:45.389Z,317
2023-06-04T13:39:18.404Z,317
2023-06-04T13:39:49.288Z,18
2023-06-04T13:40:23.557Z,339
2023-06-04T13:40:53.493Z,347
2023-06-04T13:41:28.272Z,339
2023-06-04T13:41:57.223Z,339
2023-06-04T13:42:30.429Z,22
2023-06-04T13:43:01.324Z,22
2023-06-04T13:43:17.448Z,56
2023-06-04T13:43:49.476Z,352
2023-06-04T13:44:21.387Z,9
2023-06-04T13:44:54.107Z,15
2023-06-04T13:45:26.239Z,15
2023-06-04T13:45:58.582Z,15
2023-06-04T13:46:29.480Z,353
2023-06-04T13:47:02.326Z,15
2023-06-04T13:47:33.381Z,28
2023-06-04T13:48:09.064Z,23
2023-06-04T13:48:37.338Z,23
2023-06-04T13:49:10.975Z,23
2023-06-04T13:49:41.314Z,22
2023-06-04T13:50:14.574Z,22
2023-06-04T13:50:45.354Z,22
2023-06-04T13:51:18.269Z,13
2023-06-04T13:51:49.385Z,15
2023-06-04T13:52:22.121Z,15
2023-06-04T13:52:53.519Z,15
2023-06-04T13:53:26.218Z,15
2023-06-04T13:53:57.292Z,271
2023-06-04T13:54:30.234Z,16
2023-06-04T13:55:01.738Z,22
2023-06-04T13:55:17.380Z,22
2023-06-04T13:55:49.567Z,22
2023-06-04T13:56:21.253Z,22
2023-06-04T13:56:54.224Z,22
2023-06-04T13:57:25.531Z,28
2023-06-04T13:57:58.149Z,28
2023-06-04T13:58:29.397Z,28
2023-06-04T13:59:02.408Z,25
2023-06-04T13:59:33.233Z,25
2023-06-04T14:00:07.637Z,25
2023-06-04T14:00:37.558Z,35
2023-06-04T14:01:10.738Z,35
2023-06-04T14:01:41.518Z,35
2023-06-04T14:02:14.589Z,35
2023-06-04T14:02:45.540Z,20
2023-06-04T14:03:18.485Z,20
2023-06-04T14:03:49.459Z,27
2023-06-04T14:04:22.231Z,27
2023-06-04T14:04:53.565Z,20
2023-06-04T14:05:28.280Z,20
2023-06-04T14:05:57.478Z,135
2023-06-04T14:06:29.965Z,65
2023-06-04T14:07:01.413Z,62
2023-06-04T14:07:35.052Z,62
2023-06-04T14:08:05.371Z,62
2023-06-04T14:08:41.210Z,62
2023-06-04T14:09:09.318Z,62
2023-06-04T14:09:42.139Z,62
2023-06-04T14:10:13.684Z,4
2023-06-04T14:10:46.040Z,14
2023-06-04T14:11:17.268Z,14
2023-06-04T14:11:50.131Z,14
2023-06-04T14:12:21.434Z,14
2023-06-04T14:12:54.248Z,20
2023-06-04T14:13:25.358Z,328
2023-06-04T14:13:58.165Z,28
2023-06-04T14:14:29.267Z,28
2023-06-04T14:15:05.390Z,35
2023-06-04T14:15:33.588Z,38
2023-06-04T14:16:06.279Z,334
2023-06-04T14:16:37.308Z,328
2023-06-04T14:17:10.195Z,328
2023-06-04T14:17:41.429Z,328
2023-06-04T14:18:14.102Z,328
2023-06-04T14:18:45.296Z,9
2023-06-04T14:19:19.098Z,62
2023-06-04T14:19:49.520Z,59
2023-06-04T14:20:23.218Z,55
2023-06-04T14:20:53.478Z,55
2023-06-04T14:21:26.169Z,55
2023-06-04T14:21:57.412Z,55
2023-06-04T14:22:30.224Z,55
2023-06-04T14:23:01.500Z,55
2023-06-04T14:23:34.315Z,55
2023-06-04T14:24:05.475Z,55
2023-06-04T14:24:38.147Z,55
2023-06-04T14:25:09.814Z,55
2023-06-04T14:25:42.133Z,55
2023-06-04T14:26:13.276Z,55
2023-06-04T14:26:46.974Z,55
2023-06-04T14:27:17.474Z,26
2023-06-04T14:27:50.246Z,52
2023-06-04T14:28:21.441Z,60
2023-06-04T14:28:54.152Z,37
2023-06-04T14:29:25.259Z,29
2023-06-04T14:29:58.118Z,29
2023-06-04T14:30:30.406Z,29
2023-06-04T14:31:02.122Z,29
2023-06-04T14:31:33.431Z,29
2023-06-04T14:32:06.478Z,29
2023-06-04T14:32:37.584Z,29
2023-06-04T14:33:10.067Z,43
2023-06-04T14:33:41.351Z,65
2023-06-04T14:34:14.231Z,20
2023-06-04T14:34:45.542Z,65
2023-06-04T14:35:19.324Z,88
2023-06-04T14:35:49.483Z,88
2023-06-04T14:36:22.203Z,88
2023-06-04T14:36:53.388Z,88
2023-06-04T14:37:26.198Z,88
2023-06-04T14:37:57.346Z,107
2023-06-04T14:38:30.294Z,107
2023-06-04T14:39:01.441Z,62
2023-06-04T14:39:17.730Z,62
2023-06-04T14:39:49.448Z,62
2023-06-04T14:40:21.661Z,107
2023-06-04T14:40:53.461Z,107
2023-06-04T14:41:25.207Z,107
2023-06-04T14:41:58.073Z,107
2023-06-04T14:42:29.391Z,107
2023-06-04T14:43:02.280Z,107
2023-06-04T14:43:33.345Z,62
2023-06-04T14:44:06.147Z,88
2023-06-04T14:44:37.552Z,37
2023-06-04T14:45:11.317Z,59
2023-06-04T14:45:41.522Z,56
2023-06-04T14:46:14.117Z,56
2023-06-04T14:46:45.595Z,62
2023-06-04T14:47:18.526Z,62
2023-06-04T14:47:51.482Z,62
2023-06-04T14:48:22.402Z,62
2023-06-04T14:48:53.361Z,33
2023-06-04T14:49:26.375Z,59
2023-06-04T14:49:57.281Z,68
2023-06-04T14:50:30.502Z,68
2023-06-04T14:51:01.446Z,148
2023-06-04T14:51:34.281Z,40
2023-06-04T14:52:05.382Z,65
2023-06-04T14:52:38.314Z,65
2023-06-04T14:53:09.423Z,35
2023-06-04T14:53:42.155Z,52
2023-06-04T14:54:13.500Z,35
2023-06-04T14:54:46.139Z,35
2023-06-04T14:55:17.714Z,59
2023-06-04T14:55:50.461Z,35
2023-06-04T14:56:21.347Z,29
2023-06-04T14:56:54.195Z,35
2023-06-04T14:57:25.392Z,106